createdAt,value
2019-01-10T00:00:14.447Z,4.74
2019-01-10T00:01:24.432Z,4.72
2019-01-10T00:02:34.254Z,4.69
2019-01-10T00:03:44.309Z,4.75
2019-01-10T00:04:54.340Z,4.69
2019-01-10T00:06:04.145Z,4.69
2019-01-10T00:07:14.300Z,4.68
2019-01-10T00:08:24.340Z,4.75
2019-01-10T00:09:34.171Z,4.75
2019-01-10T00:10:44.233Z,4.78
2019-01-10T00:11:54.340Z,4.75
2019-01-10T00:13:04.126Z,4.74
2019-01-10T00:14:13.936Z,4.68
2019-01-10T00:15:23.779Z,4.64
2019-01-10T00:16:33.575Z,4.78
2019-01-10T00:17:43.642Z,4.74
2019-01-10T00:18:55.490Z,4.75
2019-01-10T00:20:05.896Z,4.71
2019-01-10T00:21:15.549Z,4.72
2019-01-10T00:22:25.390Z,4.75
2019-01-10T00:23:35.221Z,4.74
2019-01-10T00:24:45.287Z,4.72
2019-01-10T00:25:55.080Z,4.83
2019-01-10T00:27:05.919Z,4.71
2019-01-10T00:28:15.723Z,4.72
2019-01-10T00:29:25.507Z,4.83
2019-01-10T00:30:35.543Z,4.83
2019-01-10T00:31:45.608Z,4.69
2019-01-10T00:32:55.656Z,4.78
2019-01-10T00:34:06.408Z,4.83
2019-01-10T00:35:16.468Z,4.84
2019-01-10T00:36:26.625Z,4.79
2019-01-10T00:37:36.682Z,4.74
2019-01-10T00:38:46.829Z,4.78
2019-01-10T00:39:56.889Z,4.74
2019-01-10T00:41:06.943Z,4.78
2019-01-10T00:42:17.016Z,4.85
2019-01-10T00:43:27.056Z,4.78
2019-01-10T00:44:37.112Z,4.76
2019-01-10T00:45:46.904Z,4.74
2019-01-10T00:46:56.933Z,4.83
2019-01-10T00:48:06.988Z,4.83
2019-01-10T00:49:17.094Z,4.72
2019-01-10T00:50:26.644Z,4.76
2019-01-10T00:51:36.684Z,4.84
2019-01-10T00:52:46.730Z,4.78
2019-01-10T00:53:56.777Z,4.78
2019-01-10T00:55:06.333Z,4.78
2019-01-10T00:56:16.386Z,4.76
2019-01-10T00:57:26.200Z,4.92
2019-01-10T00:58:36.249Z,4.88
2019-01-10T00:59:46.313Z,4.78
2019-01-10T01:00:56.109Z,4.85
2019-01-10T01:02:07.625Z,4.83
2019-01-10T01:03:17.694Z,4.95
2019-01-10T01:04:27.491Z,4.79
2019-01-10T01:05:37.589Z,5.02
2019-01-10T01:06:47.646Z,4.95
2019-01-10T01:07:57.588Z,4.95
2019-01-10T01:09:07.374Z,5.08
2019-01-10T01:10:17.443Z,4.91
2019-01-10T01:11:27.502Z,4.98
2019-01-10T01:12:37.288Z,4.94
2019-01-10T01:13:47.337Z,4.94
2019-01-10T01:14:57.411Z,4.79
2019-01-10T01:16:07.483Z,4.92
2019-01-10T01:17:18.410Z,4.87
2019-01-10T01:18:28.456Z,4.79
2019-01-10T01:19:38.503Z,4.79
2019-01-10T01:20:48.567Z,4.83
2019-01-10T01:21:58.622Z,4.76
2019-01-10T01:23:09.034Z,4.76
2019-01-10T01:24:18.831Z,4.79
2019-01-10T01:25:28.882Z,4.85
2019-01-10T01:26:38.747Z,4.87
2019-01-10T01:27:48.542Z,4.85
2019-01-10T01:28:58.694Z,4.79
2019-01-10T01:30:10.772Z,4.79
2019-01-10T01:31:20.587Z,4.79
2019-01-10T01:32:30.735Z,4.75
2019-01-10T01:33:40.784Z,4.71
2019-01-10T01:34:50.841Z,4.79
2019-01-10T01:36:01.187Z,4.79
2019-01-10T01:37:10.788Z,4.74
2019-01-10T01:38:20.839Z,4.72
2019-01-10T01:39:30.633Z,4.76
2019-01-10T01:40:40.690Z,4.78
2019-01-10T01:41:50.723Z,4.72
2019-01-10T01:43:09.677Z,4.74
2019-01-10T01:44:19.736Z,4.69
2019-01-10T01:45:29.533Z,4.75
2019-01-10T01:46:39.589Z,4.74
2019-01-10T01:47:49.629Z,4.72
2019-01-10T01:48:59.670Z,4.75
2019-01-10T01:50:10.069Z,4.76
2019-01-10T01:51:20.112Z,4.71
2019-01-10T01:52:30.160Z,4.79
2019-01-10T01:53:40.266Z,4.72
2019-01-10T01:54:50.324Z,4.78
2019-01-10T01:56:00.274Z,4.76
2019-01-10T01:57:09.839Z,4.75
2019-01-10T01:58:19.876Z,4.79
2019-01-10T01:59:30.429Z,4.78
2019-01-10T02:00:40.487Z,4.83
2019-01-10T02:01:50.537Z,4.76
2019-01-10T02:03:00.597Z,4.79
2019-01-10T02:04:10.378Z,4.84
2019-01-10T02:05:20.433Z,4.9
2019-01-10T02:06:30.496Z,4.83
2019-01-10T02:07:40.534Z,4.85
2019-01-10T02:08:50.331Z,4.98
2019-01-10T02:10:03.101Z,4.83
2019-01-10T02:11:13.280Z,4.85
2019-01-10T02:12:23.340Z,4.87
2019-01-10T02:13:33.421Z,4.84
2019-01-10T02:14:43.483Z,4.9
2019-01-10T02:15:53.526Z,4.85
2019-01-10T02:17:03.091Z,4.84
2019-01-10T02:18:13.152Z,4.79
2019-01-10T02:19:23.222Z,4.95
2019-01-10T02:20:32.763Z,4.9
2019-01-10T02:21:42.564Z,4.98
2019-01-10T02:22:52.672Z,4.84
2019-01-10T02:24:02.755Z,4.88
2019-01-10T02:25:12.803Z,4.79
2019-01-10T02:26:22.599Z,4.91
2019-01-10T02:27:32.424Z,4.83
2019-01-10T02:28:42.218Z,4.92
2019-01-10T02:29:52.267Z,4.94
2019-01-10T02:31:02.764Z,4.91
2019-01-10T02:32:12.663Z,5
2019-01-10T02:33:22.728Z,4.92
2019-01-10T02:34:32.776Z,5
2019-01-10T02:35:42.847Z,5.02
2019-01-10T02:36:52.898Z,5.03
2019-01-10T02:38:04.453Z,4.98
2019-01-10T02:39:14.242Z,5.03
2019-01-10T02:40:24.286Z,4.97
2019-01-10T02:41:33.825Z,4.92
2019-01-10T02:42:43.622Z,4.88
2019-01-10T02:43:53.442Z,4.88
2019-01-10T02:45:03.498Z,4.88
2019-01-10T02:46:13.576Z,4.78
2019-01-10T02:47:23.386Z,4.76
2019-01-10T02:48:33.470Z,4.75
2019-01-10T02:49:43.289Z,4.78
2019-01-10T02:50:53.341Z,4.84
2019-01-10T02:52:03.497Z,4.78
2019-01-10T02:53:13.575Z,4.75
2019-01-10T02:54:25.204Z,4.72
2019-01-10T02:55:34.989Z,4.74
2019-01-10T02:56:45.163Z,4.74
2019-01-10T02:57:55.242Z,4.74
2019-01-10T02:59:04.793Z,4.74
2019-01-10T03:00:15.359Z,4.79
2019-01-10T03:01:25.499Z,4.74
2019-01-10T03:02:35.551Z,4.83
2019-01-10T03:35:16.904Z,2.63
2019-01-10T03:36:26.997Z,2.62
2019-01-10T03:37:37.063Z,2.65
2019-01-10T03:38:47.137Z,2.65
2019-01-10T03:39:57.175Z,2.65
2019-01-10T03:41:07.084Z,2.69
2019-01-10T03:42:16.885Z,2.77
2019-01-10T03:43:26.443Z,2.9
2019-01-10T03:44:39.359Z,2.96
2019-01-10T03:45:49.192Z,3.11
2019-01-10T03:46:58.990Z,3.29
2019-01-10T03:48:08.538Z,3.37
2019-01-10T03:49:18.795Z,3.4
2019-01-10T03:50:28.679Z,3.56
2019-01-10T03:51:38.487Z,3.58
2019-01-10T03:52:48.598Z,3.71
2019-01-10T03:53:58.652Z,3.76
2019-01-10T03:55:08.709Z,3.9
2019-01-10T03:56:18.764Z,3.97
2019-01-10T03:57:28.055Z,3.94
2019-01-10T03:58:38.118Z,4.04
2019-01-10T03:59:47.917Z,4.15
2019-01-10T04:01:03.104Z,4.21
2019-01-10T04:02:13.168Z,4.14
2019-01-10T04:03:23.239Z,4.28
2019-01-10T04:04:33.033Z,4.14
2019-01-10T04:05:43.078Z,4.28
2019-01-10T04:06:53.141Z,4.3
2019-01-10T04:08:05.471Z,4.33
2019-01-10T04:09:15.303Z,4.38
2019-01-10T04:10:25.415Z,4.36
2019-01-10T04:11:35.212Z,4.33
2019-01-10T04:12:45.018Z,4.46
2019-01-10T04:14:02.370Z,4.51
2019-01-10T04:15:12.164Z,4.5
2019-01-10T04:16:22.261Z,4.5
2019-01-10T04:17:32.320Z,4.51
2019-01-10T04:18:42.387Z,4.5
2019-01-10T04:19:52.190Z,4.51
2019-01-10T04:21:03.504Z,4.53
2019-01-10T04:22:24.330Z,4.53
2019-01-10T04:23:34.391Z,4.53
2019-01-10T04:24:44.452Z,4.56
2019-01-10T04:25:54.233Z,4.53
2019-01-10T04:27:04.493Z,4.54
2019-01-10T04:28:14.656Z,4.51
2019-01-10T04:29:24.774Z,4.54
2019-01-10T04:30:34.819Z,4.64
2019-01-10T04:31:44.618Z,4.68
2019-01-10T04:32:54.437Z,4.65
2019-01-10T04:34:04.230Z,4.58
2019-01-10T04:35:14.286Z,4.57
2019-01-10T04:36:24.109Z,4.61
2019-01-10T04:37:35.622Z,4.61
2019-01-10T04:38:45.188Z,4.61
2019-01-10T04:39:54.980Z,4.6
2019-01-10T04:41:04.800Z,4.6
2019-01-10T04:42:14.860Z,4.61
2019-01-10T04:43:27.195Z,4.58
2019-01-10T04:44:37.238Z,4.58
2019-01-10T04:45:47.037Z,4.57
2019-01-10T04:46:57.116Z,4.61
2019-01-10T04:48:06.940Z,4.6
2019-01-10T04:49:16.998Z,4.69
2019-01-10T04:50:27.065Z,4.64
2019-01-10T04:51:37.125Z,4.65
2019-01-10T04:52:47.185Z,4.66
2019-01-10T04:53:56.967Z,4.6
2019-01-10T04:55:07.021Z,4.69
2019-01-10T04:56:17.082Z,4.69
2019-01-10T04:57:27.160Z,4.65
2019-01-10T04:58:36.707Z,4.74
2019-01-10T04:59:46.771Z,4.72
2019-01-10T05:00:56.835Z,4.84
2019-01-10T05:02:06.629Z,4.83
2019-01-10T05:03:25.963Z,4.72
2019-01-10T05:04:35.503Z,4.79
2019-01-10T05:05:45.554Z,4.75
2019-01-10T05:06:55.603Z,4.75
2019-01-10T05:08:07.760Z,4.74
2019-01-10T05:09:17.822Z,4.83
2019-01-10T05:10:27.938Z,4.74
2019-01-10T05:11:38.082Z,4.74
2019-01-10T05:12:48.161Z,4.75
2019-01-10T05:13:58.223Z,4.85
2019-01-10T05:15:08.287Z,4.87
2019-01-10T05:16:18.086Z,4.85
2019-01-10T05:17:30.117Z,4.84
2019-01-10T05:18:40.140Z,4.87
2019-01-10T05:19:50.008Z,4.84
2019-01-10T05:20:59.805Z,4.85
2019-01-10T05:22:09.973Z,4.91
2019-01-10T05:23:22.138Z,4.95
2019-01-10T05:24:32.265Z,4.83
2019-01-10T05:25:42.315Z,4.84
2019-01-10T05:26:52.113Z,4.9
2019-01-10T05:28:01.932Z,4.83
2019-01-10T05:29:12.012Z,4.79
2019-01-10T05:30:21.833Z,4.76
2019-01-10T05:31:31.880Z,4.65
2019-01-10T05:32:41.673Z,4.72
2019-01-10T05:33:51.727Z,4.71
2019-01-10T05:35:02.891Z,4.71
2019-01-10T05:36:12.427Z,4.68
2019-01-10T05:37:22.503Z,4.69
2019-01-10T05:38:32.588Z,4.69
2019-01-10T05:39:52.272Z,4.74
2019-01-10T05:41:02.339Z,4.69
2019-01-10T05:42:13.496Z,4.68
2019-01-10T05:43:23.820Z,4.72
2019-01-10T05:44:33.909Z,4.69
2019-01-10T05:45:43.980Z,4.69
2019-01-10T05:46:54.032Z,4.69
2019-01-10T05:48:04.104Z,4.65
2019-01-10T05:49:13.920Z,4.58
2019-01-10T05:50:23.977Z,4.65
2019-01-10T05:51:34.077Z,4.64
2019-01-10T05:52:43.885Z,4.6
2019-01-10T05:53:53.679Z,4.6
2019-01-10T05:55:03.478Z,4.58
2019-01-10T05:56:20.549Z,4.6
2019-01-10T05:57:30.602Z,4.54
2019-01-10T05:58:40.671Z,4.51
2019-01-10T05:59:52.040Z,4.5
2019-01-10T06:01:02.118Z,4.48
2019-01-10T06:02:12.189Z,4.54
2019-01-10T06:03:22.236Z,4.38
2019-01-10T06:04:32.291Z,4.33
2019-01-10T06:05:42.341Z,4.29
2019-01-10T06:06:52.416Z,4.22
2019-01-10T06:08:02.663Z,4.15
2019-01-10T06:09:12.706Z,4.24
2019-01-10T06:10:22.881Z,4.21
2019-01-10T06:11:32.975Z,4.24
2019-01-10T06:12:43.021Z,4.18
2019-01-10T06:13:53.109Z,4.18
2019-01-10T06:15:03.814Z,4.15
2019-01-10T06:16:13.854Z,4.15
2019-01-10T06:17:23.658Z,4.04
2019-01-10T06:18:33.688Z,4.08
2019-01-10T06:19:43.475Z,4.08
2019-01-10T06:20:53.535Z,4.02
2019-01-10T06:22:03.604Z,4.08
2019-01-10T06:23:13.406Z,4
2019-01-10T06:24:25.818Z,4.07
2019-01-10T06:25:35.884Z,4.02
2019-01-10T06:26:45.711Z,4.03
2019-01-10T06:27:55.786Z,3.94
2019-01-10T06:29:07.870Z,4
2019-01-10T06:30:18.087Z,3.93
2019-01-10T06:31:28.143Z,3.99
2019-01-10T06:32:37.964Z,4.04
2019-01-10T06:33:48.030Z,3.9
2019-01-10T06:34:57.829Z,4.02
2019-01-10T06:36:07.931Z,4.04
2019-01-10T06:37:17.994Z,4.03
2019-01-10T06:38:27.886Z,3.97
2019-01-10T06:39:37.954Z,4.03
2019-01-10T06:40:48.040Z,4.1
2019-01-10T06:41:58.101Z,4.08
2019-01-10T06:43:08.182Z,4.07
2019-01-10T06:44:18.236Z,4.12
2019-01-10T06:45:29.299Z,4.11
2019-01-10T06:46:39.457Z,4.08
2019-01-10T06:47:49.512Z,4.08
2019-01-10T06:48:59.588Z,4.11
2019-01-10T06:50:10.546Z,4.14
2019-01-10T06:51:20.597Z,4.11
2019-01-10T06:52:30.647Z,4.18
2019-01-10T06:53:40.733Z,4.15
2019-01-10T06:55:01.347Z,4.18
2019-01-10T06:56:11.138Z,4.17
2019-01-10T06:57:20.950Z,4.11
2019-01-10T06:58:30.811Z,4.2
2019-01-10T06:59:40.851Z,4.21
2019-01-10T07:00:50.647Z,4.15
2019-01-10T07:02:00.702Z,4.24
2019-01-10T07:03:12.375Z,4.29
2019-01-10T07:04:22.158Z,4.22
2019-01-10T07:05:32.245Z,4.26
2019-01-10T07:06:42.682Z,4.24
2019-01-10T07:08:01.244Z,4.28
2019-01-10T07:09:11.147Z,4.39
2019-01-10T07:10:21.202Z,4.38
2019-01-10T07:11:31.270Z,4.42
2019-01-10T07:12:42.100Z,4.4
2019-01-10T07:13:51.892Z,4.32
2019-01-10T07:15:01.933Z,4.47
2019-01-10T07:16:11.975Z,4.51
2019-01-10T07:17:22.034Z,4.47
2019-01-10T07:18:31.841Z,4.5
2019-01-10T07:19:41.655Z,4.51
2019-01-10T07:20:52.206Z,4.54
2019-01-10T07:22:02.598Z,4.51
2019-01-10T07:23:12.399Z,4.57
2019-01-10T07:24:23.678Z,4.68
2019-01-10T07:25:33.710Z,4.69
2019-01-10T07:26:43.755Z,4.76
2019-01-10T07:27:53.810Z,4.74
2019-01-10T07:29:05.438Z,4.74
2019-01-10T07:30:15.556Z,4.79
2019-01-10T07:31:25.363Z,4.78
2019-01-10T07:32:35.471Z,4.83
2019-01-10T07:33:45.545Z,5
2019-01-10T07:34:55.408Z,4.94
2019-01-10T07:36:05.621Z,5.03
2019-01-10T07:37:17.958Z,5.03
2019-01-10T07:38:28.061Z,5.09
2019-01-10T07:39:38.113Z,5.13
2019-01-10T07:40:48.195Z,5.15
2019-01-10T07:41:58.008Z,5.24
2019-01-10T07:43:08.070Z,5.26
2019-01-10T07:44:18.146Z,5.3
2019-01-10T07:45:28.208Z,5.44
2019-01-10T07:46:38.264Z,5.31
2019-01-10T07:47:48.320Z,5.27
2019-01-10T07:48:58.220Z,5.49
2019-01-10T07:50:08.163Z,5.42
2019-01-10T07:51:18.222Z,5.45
2019-01-10T07:52:29.699Z,5.3
2019-01-10T07:53:39.662Z,5.45
2019-01-10T07:54:49.745Z,5.45
2019-01-10T07:55:59.536Z,5.37
2019-01-10T07:57:09.588Z,5.44
2019-01-10T07:58:19.389Z,5.44
2019-01-10T07:59:29.024Z,5.48
2019-01-10T08:00:39.088Z,5.59
2019-01-10T08:01:48.912Z,5.6
2019-01-10T08:02:58.951Z,5.57
2019-01-10T08:04:08.998Z,5.66
2019-01-10T08:05:18.807Z,5.7
2019-01-10T08:06:28.622Z,5.78
2019-01-10T08:07:38.571Z,5.82
2019-01-10T08:08:48.626Z,5.81
2019-01-10T08:09:58.432Z,5.91
2019-01-10T08:11:08.221Z,5.98
2019-01-10T08:12:18.280Z,5.96
2019-01-10T08:13:28.350Z,6.13
2019-01-10T08:14:38.417Z,6.2
2019-01-10T08:15:48.214Z,6.15
2019-01-10T08:16:58.008Z,6.29
2019-01-10T08:18:08.064Z,6.28
2019-01-10T08:19:18.138Z,6.43
2019-01-10T08:20:28.203Z,6.37
2019-01-10T08:21:38.246Z,6.36
2019-01-10T08:22:48.291Z,6.46
2019-01-10T08:23:58.413Z,6.49
2019-01-10T08:25:08.490Z,6.47
2019-01-10T08:26:18.532Z,6.49
2019-01-10T08:27:28.592Z,6.52
2019-01-10T08:28:38.504Z,6.42
2019-01-10T08:29:48.572Z,6.58
2019-01-10T08:30:58.631Z,6.57
2019-01-10T08:32:11.161Z,6.58
2019-01-10T08:33:21.212Z,6.62
2019-01-10T08:34:31.260Z,6.54
2019-01-10T08:35:41.314Z,6.61
2019-01-10T08:36:50.881Z,6.55
2019-01-10T08:38:01.442Z,6.51
2019-01-10T08:39:11.497Z,6.44
2019-01-10T08:40:21.568Z,6.44
2019-01-10T08:41:31.158Z,6.51
2019-01-10T08:42:40.945Z,6.44
2019-01-10T08:43:51.008Z,6.51
2019-01-10T08:45:00.897Z,6.47
2019-01-10T08:46:11.085Z,6.42
2019-01-10T08:47:21.131Z,6.44
2019-01-10T08:48:30.931Z,6.49
2019-01-10T08:49:41.027Z,6.47
2019-01-10T08:50:51.079Z,6.49
2019-01-10T08:52:01.195Z,6.67
2019-01-10T08:53:11.262Z,6.8
2019-01-10T08:54:21.062Z,6.85
2019-01-10T08:55:31.106Z,7.05
2019-01-10T08:56:41.187Z,7.09
2019-01-10T08:57:51.234Z,7.16
2019-01-10T08:59:02.996Z,7.29
2019-01-10T09:00:14.738Z,7.36
2019-01-10T09:01:24.893Z,7.44
2019-01-10T09:02:36.075Z,7.52
2019-01-10T09:03:46.228Z,7.64
2019-01-10T09:04:56.839Z,7.68
2019-01-10T09:06:12.824Z,7.7
2019-01-10T09:07:22.978Z,7.71
2019-01-10T09:08:33.041Z,7.75
2019-01-10T09:09:43.103Z,7.85
2019-01-10T09:10:52.906Z,7.86
2019-01-10T09:12:03.204Z,7.89
2019-01-10T09:13:13.237Z,7.78
2019-01-10T09:14:23.305Z,7.75
2019-01-10T09:15:39.501Z,7.63
2019-01-10T09:16:49.564Z,7.51
2019-01-10T09:17:59.609Z,7.39
2019-01-10T09:19:09.720Z,7.41
2019-01-10T09:20:19.522Z,7.36
2019-01-10T09:21:29.571Z,7.31
2019-01-10T09:22:39.371Z,7.39
2019-01-10T09:23:49.165Z,7.4
2019-01-10T09:24:59.220Z,7.45
2019-01-10T09:26:09.275Z,7.49
2019-01-10T09:27:19.322Z,7.52
2019-01-10T09:28:29.374Z,7.51
2019-01-10T09:29:39.433Z,7.63
2019-01-10T09:30:49.520Z,7.7
2019-01-10T09:31:59.575Z,7.74
2019-01-10T09:33:10.699Z,7.74
2019-01-10T09:34:29.258Z,7.75
2019-01-10T09:35:39.316Z,7.77
2019-01-10T09:36:49.436Z,7.77
2019-01-10T09:37:59.506Z,7.67
2019-01-10T09:39:09.553Z,7.64
2019-01-10T09:40:19.616Z,7.55
2019-01-10T09:41:29.652Z,7.51
2019-01-10T09:42:39.236Z,7.44
2019-01-10T09:43:49.064Z,7.48
2019-01-10T09:44:58.904Z,7.48
2019-01-10T09:46:08.709Z,7.47
2019-01-10T09:47:18.766Z,7.49
2019-01-10T09:48:28.899Z,7.48
2019-01-10T09:49:38.976Z,7.49
2019-01-10T09:50:49.030Z,7.52
2019-01-10T09:51:58.842Z,7.52
2019-01-10T09:53:10.862Z,7.55
2019-01-10T09:54:20.683Z,7.67
2019-01-10T09:55:30.729Z,7.54
2019-01-10T09:56:40.535Z,7.68
2019-01-10T09:57:50.077Z,7.56
2019-01-10T09:58:59.898Z,7.63
2019-01-10T10:00:10.377Z,7.61
2019-01-10T10:01:20.689Z,7.63
2019-01-10T10:02:30.483Z,7.61
2019-01-10T10:03:40.287Z,7.68
2019-01-10T10:04:50.426Z,7.67
2019-01-10T10:06:09.957Z,7.68
2019-01-10T10:07:19.808Z,7.61
2019-01-10T10:08:29.684Z,7.61
2019-01-10T10:09:39.793Z,7.56
2019-01-10T10:10:49.868Z,7.51
2019-01-10T10:11:59.919Z,7.54
2019-01-10T10:13:09.981Z,7.49
2019-01-10T10:14:19.794Z,7.52
2019-01-10T10:15:29.598Z,7.44
2019-01-10T10:16:39.628Z,7.54
2019-01-10T10:17:49.697Z,7.54
2019-01-10T10:18:59.758Z,7.55
2019-01-10T10:20:10.334Z,7.52
2019-01-10T10:21:22.287Z,7.49
2019-01-10T10:22:31.845Z,7.51
2019-01-10T10:23:41.671Z,7.54
2019-01-10T10:24:51.480Z,7.52
2019-01-10T10:26:01.558Z,7.58
2019-01-10T10:27:11.622Z,7.75
2019-01-10T10:28:21.700Z,7.74
2019-01-10T10:29:31.782Z,7.75
2019-01-10T10:30:41.579Z,7.83
2019-01-10T10:31:51.671Z,7.92
2019-01-10T10:33:01.770Z,7.96
2019-01-10T10:34:11.595Z,7.92
2019-01-10T10:35:21.662Z,7.95
2019-01-10T10:36:32.491Z,8.01
2019-01-10T10:37:42.314Z,8.01
2019-01-10T10:38:52.403Z,8.1
2019-01-10T10:40:02.992Z,8.17
2019-01-10T10:41:13.090Z,8.24
2019-01-10T10:42:23.174Z,8.28
2019-01-10T10:43:32.987Z,8.4
2019-01-10T10:44:43.072Z,8.47
2019-01-10T10:46:01.151Z,8.57
2019-01-10T10:47:11.586Z,8.64
2019-01-10T10:48:21.491Z,8.71
2019-01-10T10:49:31.561Z,8.71
2019-01-10T10:50:41.738Z,8.68
2019-01-10T10:51:51.807Z,8.79
2019-01-10T10:53:01.874Z,8.79
2019-01-10T10:54:11.685Z,8.89
2019-01-10T10:55:21.871Z,8.94
2019-01-10T10:56:31.748Z,8.9
2019-01-10T10:57:41.886Z,8.89
2019-01-10T10:58:51.973Z,8.85
2019-01-10T11:00:02.486Z,8.82
2019-01-10T11:01:12.849Z,8.71
2019-01-10T11:02:22.668Z,8.72
2019-01-10T11:03:32.751Z,8.69
2019-01-10T11:04:44.251Z,8.68
2019-01-10T11:05:54.429Z,8.74
2019-01-10T11:07:05.930Z,8.53
2019-01-10T11:08:16.040Z,8.57
2019-01-10T11:09:26.117Z,8.49
2019-01-10T11:10:36.202Z,8.46
2019-01-10T11:11:46.323Z,8.44
2019-01-10T11:12:56.407Z,8.49
2019-01-10T11:14:11.003Z,8.49
2019-01-10T11:15:21.346Z,8.42
2019-01-10T11:16:31.427Z,8.49
2019-01-10T11:17:41.515Z,8.52
2019-01-10T11:18:51.599Z,8.35
2019-01-10T11:20:02.347Z,8.25
2019-01-10T11:21:12.448Z,8.21
2019-01-10T11:22:22.321Z,8.14
2019-01-10T11:23:32.164Z,8.21
2019-01-10T11:24:42.251Z,8.09
2019-01-10T11:25:52.350Z,7.99
2019-01-10T11:27:02.426Z,7.99
2019-01-10T11:28:12.532Z,7.93
2019-01-10T11:29:22.640Z,7.93
2019-01-10T11:30:32.716Z,7.83
2019-01-10T11:31:43.043Z,7.92
2019-01-10T11:32:53.787Z,7.96
2019-01-10T11:34:03.906Z,7.96
2019-01-10T11:35:14.107Z,8.06
2019-01-10T11:36:23.936Z,8.07
2019-01-10T11:37:34.045Z,8.22
2019-01-10T11:38:45.223Z,8.32
2019-01-10T11:39:55.411Z,8.42
2019-01-10T11:41:07.702Z,8.42
2019-01-10T11:42:17.784Z,8.6
2019-01-10T11:43:27.968Z,8.64
2019-01-10T11:44:38.085Z,8.62
2019-01-10T11:45:48.201Z,8.68
2019-01-10T11:46:58.303Z,8.57
2019-01-10T11:48:10.855Z,8.44
2019-01-10T11:49:20.687Z,8.5
2019-01-10T11:50:30.804Z,8.46
2019-01-10T11:51:40.899Z,8.36
2019-01-10T11:52:50.986Z,8.21
2019-01-10T11:54:00.803Z,8.28
2019-01-10T11:55:10.872Z,8.07
2019-01-10T11:56:20.923Z,7.96
2019-01-10T11:57:30.962Z,7.98
2019-01-10T11:58:41.170Z,8.01
2019-01-10T11:59:51.238Z,7.89
2019-01-10T12:01:01.599Z,7.93
2019-01-10T12:02:11.692Z,7.89
2019-01-10T12:03:21.489Z,7.83
2019-01-10T12:04:31.677Z,7.75
2019-01-10T12:05:52.888Z,7.73
2019-01-10T12:07:03.410Z,7.8
2019-01-10T12:08:13.224Z,7.91
2019-01-10T12:09:23.107Z,7.86
2019-01-10T12:10:33.193Z,7.96
2019-01-10T12:11:43.241Z,8.01
2019-01-10T12:12:53.077Z,7.98
2019-01-10T12:14:02.905Z,7.92
2019-01-10T12:15:13.198Z,7.92
2019-01-10T12:16:31.040Z,7.8
2019-01-10T12:17:41.347Z,7.83
2019-01-10T12:18:59.144Z,7.89
2019-01-10T12:20:10.441Z,7.8
2019-01-10T12:21:20.544Z,7.88
2019-01-10T12:22:30.633Z,7.75
2019-01-10T12:23:40.713Z,7.67
2019-01-10T12:24:50.269Z,7.51
2019-01-10T12:26:01.444Z,7.55
2019-01-10T12:27:11.324Z,7.51
2019-01-10T12:28:21.420Z,7.54
2019-01-10T12:29:40.978Z,7.7
2019-01-10T12:30:51.087Z,7.73
2019-01-10T12:32:01.568Z,7.63
2019-01-10T12:33:12.013Z,7.63
2019-01-10T12:34:22.138Z,7.45
2019-01-10T12:35:32.214Z,7.31
2019-01-10T12:36:42.347Z,7.29
2019-01-10T12:37:52.430Z,7.21
2019-01-10T12:39:03.533Z,7.31
2019-01-10T12:40:13.726Z,7.18
2019-01-10T12:41:23.934Z,7.18
2019-01-10T12:42:34.003Z,7.03
2019-01-10T12:43:44.083Z,7
2019-01-10T12:44:53.919Z,7.09
2019-01-10T12:46:05.848Z,7.04
2019-01-10T12:47:16.095Z,7.13
2019-01-10T12:48:26.152Z,7.11
2019-01-10T12:49:36.287Z,7.18
2019-01-10T12:50:46.365Z,7.21
2019-01-10T12:51:56.477Z,7.12
2019-01-10T12:53:06.542Z,7.05
2019-01-10T12:54:16.613Z,6.97
2019-01-10T12:55:27.384Z,6.98
2019-01-10T12:56:37.451Z,6.88
2019-01-10T12:57:47.546Z,6.86
2019-01-10T12:58:57.633Z,6.93
2019-01-10T13:00:08.182Z,6.97
2019-01-10T13:01:18.703Z,6.95
2019-01-10T13:02:28.763Z,7.16
2019-01-10T13:03:38.839Z,7.16
2019-01-10T13:04:48.926Z,7.08
2019-01-10T13:05:58.739Z,7.18
2019-01-10T13:07:08.820Z,7.19
2019-01-10T13:08:19.240Z,7.15
2019-01-10T13:09:29.381Z,7.16
2019-01-10T13:10:39.694Z,7.11
2019-01-10T13:11:50.036Z,7.04
2019-01-10T13:13:00.126Z,7.09
2019-01-10T13:14:10.275Z,7.16
2019-01-10T13:15:20.460Z,7.13
2019-01-10T13:16:30.550Z,7.16
2019-01-10T13:17:40.372Z,7.22
2019-01-10T13:18:50.471Z,7.22
2019-01-10T13:20:03.116Z,7.19
2019-01-10T13:21:14.639Z,7.22
2019-01-10T13:22:24.713Z,7.18
2019-01-10T13:23:35.009Z,7.23
2019-01-10T13:24:46.734Z,7.16
2019-01-10T13:26:04.815Z,6.97
2019-01-10T13:27:15.017Z,6.86
2019-01-10T13:28:25.111Z,6.73
2019-01-10T13:29:35.238Z,6.68
2019-01-10T13:30:46.027Z,6.61
2019-01-10T13:31:56.134Z,6.4
2019-01-10T13:33:06.231Z,6.33
2019-01-10T13:34:16.311Z,6.43
2019-01-10T13:35:26.431Z,6.33
2019-01-10T13:36:36.531Z,6.28
2019-01-10T13:37:46.668Z,6.18
2019-01-10T13:38:56.758Z,6.17
2019-01-10T13:40:06.833Z,6.13
2019-01-10T13:41:16.901Z,6.1
2019-01-10T13:42:27.117Z,6.09
2019-01-10T13:43:37.288Z,5.89
2019-01-10T13:44:47.373Z,5.92
2019-01-10T13:45:57.976Z,5.88
2019-01-10T13:47:08.779Z,5.96
2019-01-10T13:48:19.065Z,5.88
2019-01-10T13:49:29.206Z,6.05
2019-01-10T13:50:39.284Z,6.09
2019-01-10T13:51:49.491Z,6.13
2019-01-10T13:52:59.559Z,6.24
2019-01-10T13:54:09.684Z,6.2
2019-01-10T13:55:19.771Z,6.13
2019-01-10T13:56:29.871Z,6.14
2019-01-10T13:57:39.956Z,6.13
2019-01-10T13:58:49.830Z,6.1
2019-01-10T13:59:59.657Z,6.14
2019-01-10T14:01:09.954Z,6.06
2019-01-10T14:02:19.803Z,6.17
2019-01-10T14:03:29.382Z,6.07
2019-01-10T14:04:39.443Z,6.05
2019-01-10T14:05:49.586Z,6.09
2019-01-10T14:06:59.654Z,6.07
2019-01-10T14:08:10.908Z,6.1
2019-01-10T14:09:20.736Z,6.13
2019-01-10T14:10:31.003Z,6.05
2019-01-10T14:11:40.810Z,6.1
2019-01-10T14:12:50.887Z,6.14
2019-01-10T14:14:00.989Z,6.06
2019-01-10T14:15:11.076Z,6.05
2019-01-10T14:16:20.921Z,6.05
2019-01-10T14:17:30.762Z,5.98
2019-01-10T14:18:40.875Z,5.85
2019-01-10T14:19:50.931Z,5.89
2019-01-10T14:21:01.029Z,5.96
2019-01-10T14:22:10.893Z,5.78
2019-01-10T14:23:21.012Z,5.91
2019-01-10T14:24:30.833Z,5.84
2019-01-10T14:25:40.955Z,5.82
2019-01-10T14:26:51.031Z,5.77
2019-01-10T14:28:04.596Z,5.81
2019-01-10T14:29:15.659Z,5.8
2019-01-10T14:30:25.529Z,5.85
2019-01-10T14:31:35.451Z,5.85
2019-01-10T14:32:45.561Z,5.77
2019-01-10T14:33:55.857Z,5.82
2019-01-10T14:35:06.045Z,5.82
2019-01-10T14:36:15.844Z,5.87
2019-01-10T14:37:25.926Z,5.81
2019-01-10T14:38:35.491Z,5.77
2019-01-10T14:39:45.288Z,5.67
2019-01-10T14:40:55.188Z,5.64
2019-01-10T14:42:07.892Z,5.59
2019-01-10T14:43:17.975Z,5.64
2019-01-10T14:44:28.053Z,5.69
2019-01-10T14:45:38.405Z,5.62
2019-01-10T14:46:48.546Z,5.52
2019-01-10T14:48:04.782Z,5.62
2019-01-10T14:49:14.617Z,5.46
2019-01-10T14:50:24.686Z,5.45
2019-01-10T14:51:35.162Z,5.39
2019-01-10T14:52:44.971Z,5.39
2019-01-10T14:53:55.072Z,5.36
2019-01-10T14:55:05.863Z,5.24
2019-01-10T14:56:15.671Z,5.31
2019-01-10T14:57:25.491Z,5.45
2019-01-10T14:58:36.914Z,5.34
2019-01-10T14:59:46.988Z,5.36
2019-01-10T15:00:57.480Z,5.36
2019-01-10T15:02:07.835Z,5.34
2019-01-10T15:03:18.369Z,5.33
2019-01-10T15:04:28.496Z,5.37
2019-01-10T15:05:39.458Z,5.28
2019-01-10T15:06:49.553Z,5.26
2019-01-10T15:08:00.311Z,5.3
2019-01-10T15:09:10.393Z,5.3
2019-01-10T15:10:20.504Z,5.27
2019-01-10T15:11:30.685Z,5.06
2019-01-10T15:12:41.900Z,5.31
2019-01-10T15:13:51.836Z,5.2
2019-01-10T15:15:01.676Z,5.12
2019-01-10T15:16:11.229Z,5.08
2019-01-10T15:17:21.549Z,5.18
2019-01-10T15:18:31.437Z,5.18
2019-01-10T15:19:41.525Z,5.13
2019-01-10T15:20:51.653Z,5.08
2019-01-10T15:22:01.718Z,5.05
2019-01-10T15:23:11.794Z,5.12
2019-01-10T15:24:21.859Z,4.95
2019-01-10T15:25:31.983Z,5.03
2019-01-10T15:26:42.048Z,5.09
2019-01-10T15:27:52.332Z,5.02
2019-01-10T15:29:03.299Z,4.95
2019-01-10T15:30:13.941Z,4.83
2019-01-10T15:31:24.011Z,4.94
2019-01-10T15:32:34.095Z,4.91
2019-01-10T15:33:44.169Z,4.85
2019-01-10T15:34:54.258Z,4.87
2019-01-10T15:36:04.071Z,5
2019-01-10T15:37:14.145Z,4.94
2019-01-10T15:38:24.257Z,5.02
2019-01-10T15:39:34.376Z,4.98
2019-01-10T15:40:44.510Z,5.03
2019-01-10T15:41:54.597Z,4.97
2019-01-10T15:43:04.685Z,5.03
2019-01-10T15:44:14.767Z,4.95
2019-01-10T15:45:24.410Z,5.03
2019-01-10T15:46:34.918Z,5
2019-01-10T15:47:45.001Z,5
2019-01-10T15:48:54.811Z,5
2019-01-10T15:50:04.944Z,4.97
2019-01-10T15:51:14.742Z,4.97
2019-01-10T15:52:24.562Z,5
2019-01-10T15:53:34.637Z,5.05
2019-01-10T15:54:44.714Z,4.98
2019-01-10T15:55:54.264Z,5.02
2019-01-10T15:57:05.712Z,5.06
2019-01-10T15:58:15.898Z,4.98
2019-01-10T15:59:26.399Z,5.02
2019-01-10T16:00:36.490Z,5.03
2019-01-10T16:01:46.550Z,5.05
2019-01-10T16:02:56.632Z,5.08
2019-01-10T16:04:12.462Z,5.05
2019-01-10T16:05:22.338Z,5.09
2019-01-10T16:06:32.432Z,5.09
2019-01-10T16:07:42.309Z,5.15
2019-01-10T16:08:52.406Z,5.08
2019-01-10T16:10:03.171Z,5.13
2019-01-10T16:11:13.262Z,5.15